sensor_id;sensor_type;location;lat;lon;timestamp;pressure;altitude;pressure_sealevel;temperature;humidity
27980;BME280;15315;50.836;4.430;2023-07-02T00:04:10;100326.78;;;20.56;68.45
27980;BME280;15315;50.836;4.430;2023-07-02T00:14:14;100333.50;;;20.76;68.29
27980;BME280;15315;50.836;4.430;2023-07-02T00:24:14;100343.44;;;20.77;68.18
27980;BME280;15315;50.836;4.430;2023-07-02T00:34:16;100333.75;;;20.67;69.22
27980;BME280;15315;50.836;4.430;2023-07-02T00:44:16;100331.00;;;20.67;69.24
27980;BME280;15315;50.836;4.430;2023-07-02T00:54:17;100337.75;;;20.56;70.55
27980;BME280;15315;50.836;4.430;2023-07-02T01:04:18;100336.94;;;20.78;69.34
27980;BME280;15315;50.836;4.430;2023-07-02T01:14:36;100346.00;;;20.48;71.46
27980;BME280;15315;50.836;4.430;2023-07-02T01:24:40;100359.25;;;20.67;70.98
27980;BME280;15315;50.836;4.430;2023-07-02T01:34:41;100354.69;;;20.29;73.93
27980;BME280;15315;50.836;4.430;2023-07-02T01:44:44;100363.72;;;20.37;73.91
27980;BME280;15315;50.836;4.430;2023-07-02T01:54:45;100365.13;;;20.56;73.41
27980;BME280;15315;50.836;4.430;2023-07-02T02:04:45;100362.50;;;20.40;74.07
27980;BME280;15315;50.836;4.430;2023-07-02T02:14:46;100369.09;;;20.76;72.86
27980;BME280;15315;50.836;4.430;2023-07-02T02:24:46;100374.88;;;20.28;75.71
27980;BME280;15315;50.836;4.430;2023-07-02T02:34:47;100378.97;;;20.63;74.86
27980;BME280;15315;50.836;4.430;2023-07-02T02:44:47;100393.03;;;20.29;77.13
27980;BME280;15315;50.836;4.430;2023-07-02T02:54:49;100399.72;;;19.63;83.95
27980;BME280;15315;50.836;4.430;2023-07-02T03:04:50;100395.03;;;19.88;82.39
27980;BME280;15315;50.836;4.430;2023-07-02T03:14:50;100403.00;;;20.06;81.20
27980;BME280;15315;50.836;4.430;2023-07-02T03:24:54;100408.00;;;19.94;82.22
27980;BME280;15315;50.836;4.430;2023-07-02T03:34:54;100418.81;;;19.79;84.27
27980;BME280;15315;50.836;4.430;2023-07-02T03:44:55;100419.00;;;19.78;85.72
27980;BME280;15315;50.836;4.430;2023-07-02T03:54:55;100425.88;;;19.58;88.36
27980;BME280;15315;50.836;4.430;2023-07-02T04:04:56;100444.69;;;19.61;89.27
27980;BME280;15315;50.836;4.430;2023-07-02T04:14:56;100438.69;;;19.65;89.47
27980;BME280;15315;50.836;4.430;2023-07-02T04:24:56;100454.78;;;19.52;91.37
27980;BME280;15315;50.836;4.430;2023-07-02T04:34:57;100466.03;;;19.49;91.19
27980;BME280;15315;50.836;4.430;2023-07-02T04:44:58;100471.00;;;19.70;90.83
27980;BME280;15315;50.836;4.430;2023-07-02T04:55:02;100478.31;;;19.77;90.22
27980;BME280;15315;50.836;4.430;2023-07-02T05:05:03;100495.78;;;19.60;91.53
27980;BME280;15315;50.836;4.430;2023-07-02T05:15:04;100483.28;;;19.74;92.90
27980;BME280;15315;50.836;4.430;2023-07-02T05:25:05;100487.53;;;20.09;88.53
27980;BME280;15315;50.836;4.430;2023-07-02T05:35:06;100501.94;;;19.78;91.17
27980;BME280;15315;50.836;4.430;2023-07-02T05:45:06;100515.69;;;20.33;88.31
27980;BME280;15315;50.836;4.430;2023-07-02T05:55:07;100525.53;;;20.12;89.32
27980;BME280;15315;50.836;4.430;2023-07-02T06:05:10;100520.94;;;20.51;85.88
27980;BME280;15315;50.836;4.430;2023-07-02T06:15:10;100532.78;;;20.44;86.81
27980;BME280;15315;50.836;4.430;2023-07-02T06:25:11;100545.28;;;21.24;80.69
27980;BME280;15315;50.836;4.430;2023-07-02T06:35:11;100558.53;;;21.12;80.49
27980;BME280;15315;50.836;4.430;2023-07-02T06:45:12;100562.81;;;21.37;78.04
27980;BME280;15315;50.836;4.430;2023-07-02T06:55:12;100588.13;;;21.55;74.87
27980;BME280;15315;50.836;4.430;2023-07-02T07:05:13;100598.72;;;22.27;69.78
27980;BME280;15315;50.836;4.430;2023-07-02T07:15:13;100595.97;;;21.81;63.25
27980;BME280;15315;50.836;4.430;2023-07-02T07:25:14;100601.41;;;22.49;59.90
27980;BME280;15315;50.836;4.430;2023-07-02T07:35:14;100597.50;;;23.31;58.63
27980;BME280;15315;50.836;4.430;2023-07-02T07:45:15;100600.53;;;23.72;56.25
27980;BME280;15315;50.836;4.430;2023-07-02T07:55:15;100613.56;;;22.99;56.40
27980;BME280;15315;50.836;4.430;2023-07-02T08:05:15;100604.44;;;23.13;56.40
27980;BME280;15315;50.836;4.430;2023-07-02T08:15:16;100607.13;;;23.99;52.62
27980;BME280;15315;50.836;4.430;2023-07-02T08:25:16;100617.81;;;23.66;52.45
27980;BME280;15315;50.836;4.430;2023-07-02T08:35:17;100618.56;;;23.75;51.77
27980;BME280;15315;50.836;4.430;2023-07-02T08:45:19;100632.22;;;24.04;50.35
27980;BME280;15315;50.836;4.430;2023-07-02T08:55:22;100627.47;;;23.26;53.42
27980;BME280;15315;50.836;4.430;2023-07-02T09:05:23;100627.44;;;23.98;53.12
27980;BME280;15315;50.836;4.430;2023-07-02T09:15:23;100625.53;;;24.41;49.08
27980;BME280;15315;50.836;4.430;2023-07-02T09:25:40;100640.00;;;24.22;50.08
27980;BME280;15315;50.836;4.430;2023-07-02T09:35:40;100639.25;;;23.92;50.37
27980;BME280;15315;50.836;4.430;2023-07-02T09:45:45;100627.19;;;25.25;46.70
27980;BME280;15315;50.836;4.430;2023-07-02T09:55:46;100634.72;;;24.76;46.86
27980;BME280;15315;50.836;4.430;2023-07-02T10:05:46;100646.84;;;24.53;47.07
27980;BME280;15315;50.836;4.430;2023-07-02T10:15:47;100648.34;;;24.56;45.51
27980;BME280;15315;50.836;4.430;2023-07-02T10:25:47;100648.84;;;24.38;45.84
27980;BME280;15315;50.836;4.430;2023-07-02T10:35:49;100654.63;;;23.80;45.98
27980;BME280;15315;50.836;4.430;2023-07-02T10:45:49;100648.78;;;23.89;45.89
27980;BME280;15315;50.836;4.430;2023-07-02T10:55:56;100655.84;;;25.24;44.87
27980;BME280;15315;50.836;4.430;2023-07-02T11:05:57;100649.84;;;25.74;43.90
27980;BME280;15315;50.836;4.430;2023-07-02T11:15:57;100643.59;;;26.07;42.31
27980;BME280;15315;50.836;4.430;2023-07-02T11:25:58;100645.00;;;25.76;40.96
27980;BME280;15315;50.836;4.430;2023-07-02T11:35:59;100643.41;;;25.48;41.00
27980;BME280;15315;50.836;4.430;2023-07-02T11:45:59;100660.13;;;25.33;39.22
27980;BME280;15315;50.836;4.430;2023-07-02T11:56:00;100644.34;;;25.68;39.64
27980;BME280;15315;50.836;4.430;2023-07-02T12:06:00;100648.91;;;26.21;39.10
27980;BME280;15315;50.836;4.430;2023-07-02T12:16:01;100650.31;;;25.71;38.54
27980;BME280;15315;50.836;4.430;2023-07-02T12:26:01;100641.91;;;26.91;37.31
27980;BME280;15315;50.836;4.430;2023-07-02T12:36:01;100635.09;;;26.34;38.00
27980;BME280;15315;50.836;4.430;2023-07-02T12:46:03;100650.47;;;25.63;36.85
27980;BME280;15315;50.836;4.430;2023-07-02T12:56:04;100652.03;;;25.25;39.16
27980;BME280;15315;50.836;4.430;2023-07-02T13:06:04;100631.31;;;26.42;38.24
27980;BME280;15315;50.836;4.430;2023-07-02T13:16:05;100632.66;;;27.23;37.11
27980;BME280;15315;50.836;4.430;2023-07-02T13:26:05;100631.25;;;25.89;37.57
27980;BME280;15315;50.836;4.430;2023-07-02T13:36:06;100633.19;;;26.28;37.63
27980;BME280;15315;50.836;4.430;2023-07-02T13:46:06;100634.66;;;26.18;37.99
27980;BME280;15315;50.836;4.430;2023-07-02T13:56:06;100651.88;;;25.33;39.00
27980;BME280;15315;50.836;4.430;2023-07-02T14:06:07;100621.78;;;25.58;38.89
27980;BME280;15315;50.836;4.430;2023-07-02T14:16:07;100630.69;;;27.37;37.31
27980;BME280;15315;50.836;4.430;2023-07-02T14:26:07;100617.75;;;27.18;36.15
27980;BME280;15315;50.836;4.430;2023-07-02T14:36:08;100621.03;;;26.88;37.41
27980;BME280;15315;50.836;4.430;2023-07-02T14:46:08;100604.56;;;27.64;36.77
27980;BME280;15315;50.836;4.430;2023-07-02T14:56:09;100606.69;;;28.31;35.78
27980;BME280;15315;50.836;4.430;2023-07-02T15:06:12;100612.31;;;27.87;35.26
27980;BME280;15315;50.836;4.430;2023-07-02T15:16:12;100601.47;;;28.16;35.21
27980;BME280;15315;50.836;4.430;2023-07-02T15:26:13;100609.59;;;27.80;35.20
27980;BME280;15315;50.836;4.430;2023-07-02T15:36:15;100612.41;;;27.23;35.23
27980;BME280;15315;50.836;4.430;2023-07-02T15:46:16;100613.44;;;27.48;35.27
27980;BME280;15315;50.836;4.430;2023-07-02T15:56:17;100595.81;;;28.05;34.48
27980;BME280;15315;50.836;4.430;2023-07-02T16:06:19;100596.31;;;30.66;33.45
27980;BME280;15315;50.836;4.430;2023-07-02T16:16:19;100603.13;;;30.05;31.20
27980;BME280;15315;50.836;4.430;2023-07-02T16:26:19;100595.56;;;33.23;28.32
27980;BME280;15315;50.836;4.430;2023-07-02T16:36:20;100615.31;;;35.71;26.54
27980;BME280;15315;50.836;4.430;2023-07-02T16:46:20;100612.72;;;35.02;25.56
27980;BME280;15315;50.836;4.430;2023-07-02T16:56:20;100622.56;;;33.12;27.04
27980;BME280;15315;50.836;4.430;2023-07-02T17:06:22;100619.63;;;35.31;26.02
27980;BME280;15315;50.836;4.430;2023-07-02T17:16:22;100619.00;;;33.60;26.73
27980;BME280;15315;50.836;4.430;2023-07-02T17:26:23;100613.34;;;33.55;26.82
27980;BME280;15315;50.836;4.430;2023-07-02T17:36:23;100611.28;;;34.58;26.46
27980;BME280;15315;50.836;4.430;2023-07-02T17:46:24;100600.03;;;32.64;27.43
27980;BME280;15315;50.836;4.430;2023-07-02T17:56:24;100617.38;;;32.33;27.76
27980;BME280;15315;50.836;4.430;2023-07-02T18:06:24;100627.38;;;29.21;30.63
27980;BME280;15315;50.836;4.430;2023-07-02T18:16:25;100611.50;;;28.42;31.30
27980;BME280;15315;50.836;4.430;2023-07-02T18:26:25;100622.13;;;27.51;31.44
27980;BME280;15315;50.836;4.430;2023-07-02T18:36:26;100639.47;;;25.76;33.05
27980;BME280;15315;50.836;4.430;2023-07-02T18:46:26;100642.38;;;24.25;34.52
27980;BME280;15315;50.836;4.430;2023-07-02T18:56:26;100639.59;;;23.82;35.83
27980;BME280;15315;50.836;4.430;2023-07-02T19:06:27;100643.09;;;24.89;34.76
27980;BME280;15315;50.836;4.430;2023-07-02T19:16:27;100644.50;;;25.53;34.09
27980;BME280;15315;50.836;4.430;2023-07-02T19:26:27;100658.50;;;24.06;36.09
27980;BME280;15315;50.836;4.430;2023-07-02T19:36:29;100647.41;;;23.28;37.49
27980;BME280;15315;50.836;4.430;2023-07-02T19:46:29;100654.78;;;23.42;37.45
27980;BME280;15315;50.836;4.430;2023-07-02T19:56:29;100655.28;;;22.36;38.87
27980;BME280;15315;50.836;4.430;2023-07-02T20:06:30;100668.09;;;22.95;38.29
27980;BME280;15315;50.836;4.430;2023-07-02T20:16:30;100668.72;;;23.56;37.60
27980;BME280;15315;50.836;4.430;2023-07-02T20:26:30;100677.66;;;23.43;38.01
27980;BME280;15315;50.836;4.430;2023-07-02T20:36:33;100672.59;;;23.32;38.05
27980;BME280;15315;50.836;4.430;2023-07-02T20:46:34;100666.84;;;23.12;38.46
27980;BME280;15315;50.836;4.430;2023-07-02T20:56:34;100676.59;;;22.85;38.74
27980;BME280;15315;50.836;4.430;2023-07-02T21:06:36;100679.97;;;22.58;38.94
27980;BME280;15315;50.836;4.430;2023-07-02T21:16:36;100683.38;;;22.23;39.64
27980;BME280;15315;50.836;4.430;2023-07-02T21:26:37;100687.31;;;21.75;40.76
27980;BME280;15315;50.836;4.430;2023-07-02T21:36:37;100685.38;;;21.76;40.84
27980;BME280;15315;50.836;4.430;2023-07-02T21:46:37;100685.72;;;21.50;41.85
27980;BME280;15315;50.836;4.430;2023-07-02T21:56:38;100687.00;;;21.23;42.80
27980;BME280;15315;50.836;4.430;2023-07-02T22:06:39;100693.56;;;21.14;44.07
27980;BME280;15315;50.836;4.430;2023-07-02T22:16:39;100694.84;;;20.87;44.51
27980;BME280;15315;50.836;4.430;2023-07-02T22:26:39;100686.56;;;21.12;44.09
27980;BME280;15315;50.836;4.430;2023-07-02T22:36:40;100685.19;;;20.99;44.67
27980;BME280;15315;50.836;4.430;2023-07-02T22:46:40;100668.91;;;21.06;45.03
27980;BME280;15315;50.836;4.430;2023-07-02T22:56:40;100665.91;;;20.85;46.19
27980;BME280;15315;50.836;4.430;2023-07-02T23:06:41;100661.16;;;20.30;47.65
27980;BME280;15315;50.836;4.430;2023-07-02T23:16:41;100649.84;;;20.50;48.20
27980;BME280;15315;50.836;4.430;2023-07-02T23:26:43;100636.47;;;20.71;48.66
27980;BME280;15315;50.836;4.430;2023-07-02T23:36:44;100640.09;;;20.31;49.87
27980;BME280;15315;50.836;4.430;2023-07-02T23:46:44;100621.25;;;20.52;50.16
27980;BME280;15315;50.836;4.430;2023-07-02T23:56:45;100624.03;;;20.28;51.52
